CW7944 Weather Reports


Display with metric or nautical units.
time (UTC)temp
F
wind
direction
speed
MPH
gust
MPH
rain 1hr
in
rain 24hr
in
rain mn
in
humidity
%
barometer
mb
20190425201622 61 46 2.0 0.0 0.00 0.00 0.00 40 1013.7
20190425200121 61 360 2.0 0.0 0.00 0.00 0.00 37 1013.7
20190425194626 61 74 3.0 0.0 0.00 0.00 0.00 36 1013.8
20190425193056 60 178 2.0 0.0 0.00 0.00 0.00 38 1013.7
20190425191535 60 64 2.0 0.0 0.00 0.00 0.00 36 1013.9
20190425190122 59 9 2.0 0.0 0.00 0.00 0.00 37 1012.6
20190425184553 59 11 3.0 0.0 0.00 0.00 0.00 36 1012.7
20190425183111 59 59 3.0 0.0 0.00 0.00 0.00 36 1012.9
20190425181530 58 61 3.0 0.0 0.00 0.00 0.00 38 1012.7
20190425180115 58 23 3.0 0.0 0.00 0.00 0.00 35 1013.2
20190425174525 58 57 2.0 0.0 0.00 0.00 0.00 35 1013.4
20190425173047 58 52 3.0 0.0 0.00 0.00 0.00 34 1013.6
20190425171531 58 186 3.0 0.0 0.00 0.00 0.00 35 1013.5
20190425170019 57 76 3.0 0.0 0.00 0.00 0.00 35 1013.3
20190425164517 57 78 3.0 0.0 0.00 0.00 0.00 36 1013.6
20190425163003 57 19 3.0 0.0 0.00 0.00 0.00 33 1013.7
20190425161704 56 63 3.0 0.0 0.00 0.00 0.00 34 1013.8
20190425160128 56 79 3.0 0.0 0.00 0.00 0.00 36 1014.0
20190425154635 55 26 4.0 0.0 0.00 0.00 0.00 39 1014.0
20190425153320 54 334 2.0 0.0 0.00 0.00 0.00 40 1014.0
20190425151726 53 44 2.0 0.0 0.00 0.00 0.00 43 1014.3
20190425150230 51 24 3.0 0.0 0.00 0.00 0.00 46 1014.8
20190425144644 50 84 2.0 0.0 0.00 0.00 0.00 52 1014.6
20190425143108 49 84 2.0 0.0 0.00 0.00 0.00 58 1015.0
20190425141708 46 84 1.0 0.0 0.00 0.00 0.00 67 1015.3
20190425140136 45 84 0.0 0.0 0.00 0.00 0.00 73 1015.3
20190425134614 44 84 0.0 0.0 0.00 0.00 0.00 78 1015.3
20190425133053 43 84 2.0 0.0 0.00 0.00 0.00 79 1015.1
20190425131605 42 84 1.0 0.0 0.00 0.00 0.00 81 1015.4
20190425130105 41 84 0.0 0.0 0.00 0.00 0.00 81 1014.2
20190425124550 41 84 0.0 0.0 0.00 0.00 0.00 81 1014.2
20190425123128 41 84 0.0 0.0 0.00 0.00 0.00 81 1014.4
20190425121539 41 84 0.0 0.0 0.00 0.00 0.00 81 1014.4
20190425120039 40 84 0.0 0.0 0.00 0.00 0.00 81 1013.7
20190425114552 41 84 0.0 0.0 0.00 0.00 0.00 79 1013.6
20190425113049 41 84 0.0 0.0 0.00 0.00 0.00 78 1012.7
20190425111522 42 84 0.0 0.0 0.00 0.00 0.00 76 1012.4
20190425110055 42 84 0.0 0.0 0.00 0.00 0.00 74 1012.2
20190425104523 43 84 0.0 0.0 0.00 0.00 0.00 74 1012.2
20190425103104 43 84 1.0 0.0 0.00 0.00 0.00 74 1012.1
20190425101529 44 86 2.0 0.0 0.00 0.00 0.00 73 1012.0
20190425100016 44 86 1.0 0.0 0.00 0.00 0.00 71 1011.4
20190425094510 45 57 0.0 0.0 0.00 0.00 0.00 73 1011.2
20190425093011 45 11 2.0 0.0 0.00 0.00 0.00 71 1011.3
20190425091504 45 22 3.0 0.0 0.00 0.00 0.00 71 1011.3
20190425090007 45 355 3.0 0.0 0.00 0.00 0.00 73 1010.4
20190425084509 45 67 4.0 0.0 0.00 0.00 0.00 73 1010.2
20190425083313 46 15 4.0 0.0 0.00 0.00 0.00 73 1009.9
20190425081704 46 337 6.0 0.0 0.00 0.00 0.00 72 1009.8
20190425080200 48 20 7.0 0.0 0.00 0.00 0.00 72 1009.3
20190425074701 49 15 5.0 0.0 0.00 0.00 0.00 69 1008.6
20190425073127 52 329 8.0 0.0 0.00 0.00 0.00 65 1007.5
20190425071607 57 23 7.0 0.0 0.00 0.00 0.00 51 1005.3
20190425070119 57 263 1.0 0.0 0.00 0.00 0.00 45 1004.2
20190425064703 57 214 2.0 0.0 0.00 0.00 0.00 44 1003.7
20190425063138 57 221 1.0 0.0 0.00 0.00 0.00 43 1003.6
20190425061544 57 221 1.0 0.0 0.00 0.00 0.00 43 1002.7
20190425060041 58 221 2.0 0.0 0.00 0.00 0.00 43 1002.5
20190425054600 58 249 2.0 0.0 0.00 0.00 0.00 43 1002.2
20190425053037 58 276 2.0 0.0 0.00 0.00 0.00 43 1002.2
20190425051636 59 258 2.0 0.0 0.00 0.00 0.00 42 1002.2
20190425050101 60 236 3.0 0.0 0.00 0.00 0.00 41 1002.7
20190425044553 59 308 1.0 0.0 0.00 0.00 0.00 39 1002.6
20190425043144 59 252 0.0 0.0 0.00 0.00 0.00 39 1002.5
20190425041559 59 171 1.0 0.0 0.00 0.00 0.00 38 1002.4
20190425040114 58 171 1.0 0.0 0.00 0.00 0.00 37 1003.4
20190425034634 59 333 1.0 0.0 0.00 0.00 0.00 38 1003.4
20190425033044 58 323 1.0 0.0 0.00 0.00 0.00 36 1003.4
20190425031550 58 323 0.0 0.0 0.00 0.00 0.00 36 1003.3
20190425030037 58 36 0.0 0.0 0.00 0.00 0.00 36 1003.8
20190425024554 58 36 1.0 0.0 0.00 0.00 0.00 36 1003.7
20190425023119 58 36 0.0 0.0 0.00 0.00 0.00 38 1003.5
20190425021616 59 36 0.0 0.0 0.00 0.00 0.00 41 1003.5
20190425020113 60 36 0.0 0.0 0.00 0.00 0.00 43 1003.3
20190425014544 61 36 0.0 0.0 0.00 0.00 0.00 41 1002.6
20190425013045 63 36 0.0 0.0 0.00 0.00 0.00 39 1002.5
20190425011525 64 36 0.0 0.0 0.00 0.00 0.00 38 1002.1
20190425010032 66 36 0.0 0.0 0.00 0.00 0.00 37 1002.5
20190425004552 67 36 2.0 0.0 0.00 0.00 0.00 34 1002.1
20190425003032 67 74 1.0 0.0 0.00 0.00 0.00 34 1001.9
20190425001606 67 137 0.0 0.0 0.00 0.00 0.00 33 1002.1
20190425000103 67 94 1.0 0.0 0.00 0.00 0.00 34 1002.1
20190424234536 67 95 1.0 0.0 0.00 0.00 0.00 32 1002.1
20190424233034 67 103 0.0 0.0 0.00 0.00 0.00 34 1002.5
20190424231535 67 53 0.0 0.0 0.00 0.00 0.00 34 1002.7
20190424230026 67 53 0.0 0.0 0.00 0.00 0.00 36 1002.4
20190424224551 67 53 1.0 0.0 0.00 0.00 0.00 34 1002.6
20190424223047 68 53 0.0 0.0 0.00 0.00 0.00 34 1002.7
20190424221542 68 53 1.0 0.0 0.00 0.00 0.00 34 1002.8
20190424220022 69 175 0.0 0.0 0.00 0.00 0.00 34 1002.8
20190424214531 70 175 0.0 0.0 0.00 0.00 0.00 31 1002.8
20190424213015 71 175 0.0 0.0 0.00 0.00 0.00 31 1002.5
20190424211538 71 175 1.0 0.0 0.00 0.00 0.00 29 1002.7
20190424210016 72 141 1.0 0.0 0.00 0.00 0.00 29 1002.6
20190424204524 71 165 1.0 0.0 0.00 0.00 0.00 29 1002.6
20190424203008 71 173 1.0 0.0 0.00 0.00 0.00 29 1002.7